sensor_id;sensor_type;location;lat;lon;timestamp;P1;durP1;ratioP1;P2;durP2;ratioP2
76814;SDS011;65768;49.906;19.384;2023-07-29T00:01:15;3.80;;;2.00;;
76814;SDS011;65768;49.906;19.384;2023-07-29T00:03:46;3.10;;;2.10;;
76814;SDS011;65768;49.906;19.384;2023-07-29T00:06:16;4.40;;;2.00;;
76814;SDS011;65768;49.906;19.384;2023-07-29T00:08:44;5.30;;;2.20;;
76814;SDS011;65768;49.906;19.384;2023-07-29T00:11:13;4.20;;;2.00;;
76814;SDS011;65768;49.906;19.384;2023-07-29T00:13:42;2.80;;;1.90;;
76814;SDS011;65768;49.906;19.384;2023-07-29T00:16:11;3.50;;;2.10;;
76814;SDS011;65768;49.906;19.384;2023-07-29T00:18:40;4.10;;;2.00;;
76814;SDS011;65768;49.906;19.384;2023-07-29T00:21:09;4.50;;;2.00;;
76814;SDS011;65768;49.906;19.384;2023-07-29T00:23:38;4.30;;;2.20;;
76814;SDS011;65768;49.906;19.384;2023-07-29T00:26:08;3.80;;;2.20;;
76814;SDS011;65768;49.906;19.384;2023-07-29T00:28:37;3.30;;;1.80;;
76814;SDS011;65768;49.906;19.384;2023-07-29T00:31:06;3.80;;;1.90;;
76814;SDS011;65768;49.906;19.384;2023-07-29T00:33:36;4.10;;;1.80;;
76814;SDS011;65768;49.906;19.384;2023-07-29T00:36:04;2.90;;;2.00;;
76814;SDS011;65768;49.906;19.384;2023-07-29T00:38:33;3.00;;;2.00;;
76814;SDS011;65768;49.906;19.384;2023-07-29T00:41:02;4.60;;;2.30;;
76814;SDS011;65768;49.906;19.384;2023-07-29T00:43:32;4.60;;;1.90;;
76814;SDS011;65768;49.906;19.384;2023-07-29T00:46:03;4.20;;;2.60;;
76814;SDS011;65768;49.906;19.384;2023-07-29T00:48:32;4.50;;;2.20;;
76814;SDS011;65768;49.906;19.384;2023-07-29T00:51:01;6.00;;;2.10;;
76814;SDS011;65768;49.906;19.384;2023-07-29T00:53:30;3.70;;;2.20;;
76814;SDS011;65768;49.906;19.384;2023-07-29T00:55:58;3.40;;;2.20;;
76814;SDS011;65768;49.906;19.384;2023-07-29T00:58:28;3.50;;;2.10;;
76814;SDS011;65768;49.906;19.384;2023-07-29T01:00:56;5.60;;;2.60;;
76814;SDS011;65768;49.906;19.384;2023-07-29T01:03:25;6.70;;;5.20;;
76814;SDS011;65768;49.906;19.384;2023-07-29T01:15:09;4.20;;;3.00;;
76814;SDS011;65768;49.906;19.384;2023-07-29T01:17:49;3.80;;;2.90;;
76814;SDS011;65768;49.906;19.384;2023-07-29T01:20:23;3.80;;;3.10;;
76814;SDS011;65768;49.906;19.384;2023-07-29T01:22:54;4.00;;;3.00;;
76814;SDS011;65768;49.906;19.384;2023-07-29T01:25:22;5.30;;;3.20;;
76814;SDS011;65768;49.906;19.384;2023-07-29T01:27:51;5.30;;;3.60;;
76814;SDS011;65768;49.906;19.384;2023-07-29T01:30:21;3.90;;;2.90;;
76814;SDS011;65768;49.906;19.384;2023-07-29T01:32:59;4.40;;;2.80;;
76814;SDS011;65768;49.906;19.384;2023-07-29T01:35:50;6.50;;;3.30;;
76814;SDS011;65768;49.906;19.384;2023-07-29T01:38:30;6.00;;;3.10;;
76814;SDS011;65768;49.906;19.384;2023-07-29T01:41:03;5.70;;;3.00;;
76814;SDS011;65768;49.906;19.384;2023-07-29T01:43:34;6.80;;;3.00;;
76814;SDS011;65768;49.906;19.384;2023-07-29T01:46:12;5.00;;;2.80;;
76814;SDS011;65768;49.906;19.384;2023-07-29T01:48:43;4.20;;;2.90;;
76814;SDS011;65768;49.906;19.384;2023-07-29T01:51:12;4.80;;;3.00;;
76814;SDS011;65768;49.906;19.384;2023-07-29T01:53:42;6.70;;;3.00;;
76814;SDS011;65768;49.906;19.384;2023-07-29T01:56:11;4.10;;;2.90;;
76814;SDS011;65768;49.906;19.384;2023-07-29T01:58:39;4.20;;;2.90;;
76814;SDS011;65768;49.906;19.384;2023-07-29T02:01:11;4.40;;;2.70;;
76814;SDS011;65768;49.906;19.384;2023-07-29T02:03:40;3.70;;;2.80;;
76814;SDS011;65768;49.906;19.384;2023-07-29T02:06:09;5.10;;;3.20;;
76814;SDS011;65768;49.906;19.384;2023-07-29T02:08:39;4.00;;;2.60;;
76814;SDS011;65768;49.906;19.384;2023-07-29T02:11:09;5.00;;;2.50;;
76814;SDS011;65768;49.906;19.384;2023-07-29T02:13:37;4.80;;;2.20;;
76814;SDS011;65768;49.906;19.384;2023-07-29T02:16:07;4.10;;;2.70;;
76814;SDS011;65768;49.906;19.384;2023-07-29T02:18:36;7.20;;;3.10;;
76814;SDS011;65768;49.906;19.384;2023-07-29T02:21:05;5.10;;;2.80;;
76814;SDS011;65768;49.906;19.384;2023-07-29T02:23:34;4.70;;;2.60;;
76814;SDS011;65768;49.906;19.384;2023-07-29T02:26:02;3.60;;;2.40;;
76814;SDS011;65768;49.906;19.384;2023-07-29T02:28:31;5.60;;;2.30;;
76814;SDS011;65768;49.906;19.384;2023-07-29T02:31:11;3.90;;;2.60;;
76814;SDS011;65768;49.906;19.384;2023-07-29T02:33:43;4.00;;;2.60;;
76814;SDS011;65768;49.906;19.384;2023-07-29T02:36:14;4.30;;;2.50;;
76814;SDS011;65768;49.906;19.384;2023-07-29T02:38:42;3.70;;;2.60;;
76814;SDS011;65768;49.906;19.384;2023-07-29T02:41:11;5.00;;;2.60;;
76814;SDS011;65768;49.906;19.384;2023-07-29T02:43:42;4.90;;;2.70;;
76814;SDS011;65768;49.906;19.384;2023-07-29T02:46:11;4.50;;;2.80;;
76814;SDS011;65768;49.906;19.384;2023-07-29T02:48:41;4.70;;;2.70;;
76814;SDS011;65768;49.906;19.384;2023-07-29T02:51:10;3.90;;;2.60;;
76814;SDS011;65768;49.906;19.384;2023-07-29T02:53:40;4.90;;;2.70;;
76814;SDS011;65768;49.906;19.384;2023-07-29T02:56:08;4.70;;;2.70;;
76814;SDS011;65768;49.906;19.384;2023-07-29T02:58:37;3.60;;;2.60;;
76814;SDS011;65768;49.906;19.384;2023-07-29T03:01:07;5.50;;;2.50;;
76814;SDS011;65768;49.906;19.384;2023-07-29T03:03:36;4.40;;;2.80;;
76814;SDS011;65768;49.906;19.384;2023-07-29T03:06:06;4.30;;;2.70;;
76814;SDS011;65768;49.906;19.384;2023-07-29T03:08:37;4.10;;;2.70;;
76814;SDS011;65768;49.906;19.384;2023-07-29T03:11:07;4.20;;;2.60;;
76814;SDS011;65768;49.906;19.384;2023-07-29T03:13:37;5.50;;;2.90;;
76814;SDS011;65768;49.906;19.384;2023-07-29T03:16:13;4.40;;;2.60;;
76814;SDS011;65768;49.906;19.384;2023-07-29T03:18:47;4.50;;;2.70;;
76814;SDS011;65768;49.906;19.384;2023-07-29T03:21:17;4.20;;;2.60;;
76814;SDS011;65768;49.906;19.384;2023-07-29T03:23:46;4.70;;;2.80;;
76814;SDS011;65768;49.906;19.384;2023-07-29T03:26:16;6.80;;;3.00;;
76814;SDS011;65768;49.906;19.384;2023-07-29T03:28:44;6.30;;;3.00;;
76814;SDS011;65768;49.906;19.384;2023-07-29T03:31:13;4.40;;;2.60;;
76814;SDS011;65768;49.906;19.384;2023-07-29T03:33:42;5.00;;;3.00;;
76814;SDS011;65768;49.906;19.384;2023-07-29T03:36:11;5.10;;;3.00;;
76814;SDS011;65768;49.906;19.384;2023-07-29T03:38:41;4.20;;;3.00;;
76814;SDS011;65768;49.906;19.384;2023-07-29T03:41:10;4.40;;;3.30;;
76814;SDS011;65768;49.906;19.384;2023-07-29T03:43:40;6.40;;;3.00;;
76814;SDS011;65768;49.906;19.384;2023-07-29T03:46:10;9.70;;;3.60;;
76814;SDS011;65768;49.906;19.384;2023-07-29T03:48:42;4.30;;;2.70;;
76814;SDS011;65768;49.906;19.384;2023-07-29T03:51:11;8.10;;;3.50;;
76814;SDS011;65768;49.906;19.384;2023-07-29T03:53:41;5.10;;;3.20;;
76814;SDS011;65768;49.906;19.384;2023-07-29T03:56:12;5.60;;;3.70;;
76814;SDS011;65768;49.906;19.384;2023-07-29T03:58:42;8.10;;;4.00;;
76814;SDS011;65768;49.906;19.384;2023-07-29T04:01:12;5.50;;;3.90;;
76814;SDS011;65768;49.906;19.384;2023-07-29T04:03:41;6.20;;;3.50;;
76814;SDS011;65768;49.906;19.384;2023-07-29T04:06:10;5.40;;;3.60;;
76814;SDS011;65768;49.906;19.384;2023-07-29T04:08:39;4.90;;;3.30;;
76814;SDS011;65768;49.906;19.384;2023-07-29T04:11:09;6.10;;;3.70;;
76814;SDS011;65768;49.906;19.384;2023-07-29T04:13:38;5.10;;;3.00;;
76814;SDS011;65768;49.906;19.384;2023-07-29T04:16:07;6.70;;;3.30;;
76814;SDS011;65768;49.906;19.384;2023-07-29T04:18:36;6.00;;;3.40;;
76814;SDS011;65768;49.906;19.384;2023-07-29T04:21:05;6.20;;;3.50;;
76814;SDS011;65768;49.906;19.384;2023-07-29T04:23:35;6.20;;;4.70;;
76814;SDS011;65768;49.906;19.384;2023-07-29T04:26:04;9.00;;;5.50;;
76814;SDS011;65768;49.906;19.384;2023-07-29T04:28:34;8.40;;;5.80;;
76814;SDS011;65768;49.906;19.384;2023-07-29T04:31:03;6.50;;;4.60;;
76814;SDS011;65768;49.906;19.384;2023-07-29T04:33:33;7.00;;;4.70;;
76814;SDS011;65768;49.906;19.384;2023-07-29T04:36:03;10.50;;;5.40;;
76814;SDS011;65768;49.906;19.384;2023-07-29T04:38:33;6.70;;;5.10;;
76814;SDS011;65768;49.906;19.384;2023-07-29T04:41:05;6.30;;;5.10;;
76814;SDS011;65768;49.906;19.384;2023-07-29T04:43:36;7.50;;;4.10;;
76814;SDS011;65768;49.906;19.384;2023-07-29T04:46:06;7.70;;;4.70;;
76814;SDS011;65768;49.906;19.384;2023-07-29T04:48:37;8.00;;;5.50;;
76814;SDS011;65768;49.906;19.384;2023-07-29T04:51:06;7.80;;;5.20;;
76814;SDS011;65768;49.906;19.384;2023-07-29T04:53:35;6.30;;;5.50;;
76814;SDS011;65768;49.906;19.384;2023-07-29T04:56:05;6.90;;;4.60;;
76814;SDS011;65768;49.906;19.384;2023-07-29T04:58:33;6.90;;;4.50;;
76814;SDS011;65768;49.906;19.384;2023-07-29T05:01:04;6.30;;;4.50;;
76814;SDS011;65768;49.906;19.384;2023-07-29T05:03:33;7.30;;;4.90;;
76814;SDS011;65768;49.906;19.384;2023-07-29T05:06:02;5.40;;;3.90;;
76814;SDS011;65768;49.906;19.384;2023-07-29T05:08:31;4.40;;;3.20;;
76814;SDS011;65768;49.906;19.384;2023-07-29T05:11:00;7.40;;;3.20;;
76814;SDS011;65768;49.906;19.384;2023-07-29T05:13:29;7.30;;;3.60;;
76814;SDS011;65768;49.906;19.384;2023-07-29T05:15:57;6.10;;;3.70;;
76814;SDS011;65768;49.906;19.384;2023-07-29T05:18:28;6.00;;;4.00;;
76814;SDS011;65768;49.906;19.384;2023-07-29T05:20:56;6.10;;;3.70;;
76814;SDS011;65768;49.906;19.384;2023-07-29T05:23:25;5.50;;;3.70;;
76814;SDS011;65768;49.906;19.384;2023-07-29T05:25:55;8.70;;;3.70;;
76814;SDS011;65768;49.906;19.384;2023-07-29T05:28:23;3.80;;;2.50;;
76814;SDS011;65768;49.906;19.384;2023-07-29T05:30:52;5.70;;;2.40;;
76814;SDS011;65768;49.906;19.384;2023-07-29T05:33:21;3.50;;;2.30;;
76814;SDS011;65768;49.906;19.384;2023-07-29T05:35:49;4.00;;;2.60;;
76814;SDS011;65768;49.906;19.384;2023-07-29T05:38:19;3.40;;;2.50;;
76814;SDS011;65768;49.906;19.384;2023-07-29T05:40:48;3.80;;;2.40;;
76814;SDS011;65768;49.906;19.384;2023-07-29T05:43:17;4.00;;;2.20;;
76814;SDS011;65768;49.906;19.384;2023-07-29T05:45:46;4.10;;;2.70;;
76814;SDS011;65768;49.906;19.384;2023-07-29T05:48:15;3.40;;;2.20;;
76814;SDS011;65768;49.906;19.384;2023-07-29T05:50:44;3.00;;;2.10;;
76814;SDS011;65768;49.906;19.384;2023-07-29T05:53:14;2.90;;;2.00;;
76814;SDS011;65768;49.906;19.384;2023-07-29T05:55:43;4.30;;;2.10;;
76814;SDS011;65768;49.906;19.384;2023-07-29T05:58:11;3.20;;;1.70;;
76814;SDS011;65768;49.906;19.384;2023-07-29T06:00:40;3.10;;;1.50;;
76814;SDS011;65768;49.906;19.384;2023-07-29T06:03:09;3.00;;;1.40;;
76814;SDS011;65768;49.906;19.384;2023-07-29T06:05:38;2.50;;;1.70;;
76814;SDS011;65768;49.906;19.384;2023-07-29T06:08:07;1.90;;;1.20;;
76814;SDS011;65768;49.906;19.384;2023-07-29T06:10:37;2.70;;;1.40;;
76814;SDS011;65768;49.906;19.384;2023-07-29T06:13:07;4.00;;;1.40;;
76814;SDS011;65768;49.906;19.384;2023-07-29T06:15:38;2.40;;;1.20;;
76814;SDS011;65768;49.906;19.384;2023-07-29T06:18:07;3.80;;;1.50;;
76814;SDS011;65768;49.906;19.384;2023-07-29T06:20:35;2.30;;;1.30;;
76814;SDS011;65768;49.906;19.384;2023-07-29T06:23:04;2.80;;;1.60;;
76814;SDS011;65768;49.906;19.384;2023-07-29T06:25:33;2.40;;;1.50;;
76814;SDS011;65768;49.906;19.384;2023-07-29T06:28:02;2.10;;;1.20;;
76814;SDS011;65768;49.906;19.384;2023-07-29T06:30:31;2.00;;;1.50;;
76814;SDS011;65768;49.906;19.384;2023-07-29T06:33:01;2.40;;;1.40;;
76814;SDS011;65768;49.906;19.384;2023-07-29T06:35:32;1.90;;;1.00;;
76814;SDS011;65768;49.906;19.384;2023-07-29T06:38:02;3.40;;;1.20;;
76814;SDS011;65768;49.906;19.384;2023-07-29T06:40:30;2.00;;;1.00;;
76814;SDS011;65768;49.906;19.384;2023-07-29T06:42:58;4.30;;;1.50;;
76814;SDS011;65768;49.906;19.384;2023-07-29T06:45:27;2.40;;;1.50;;
76814;SDS011;65768;49.906;19.384;2023-07-29T06:47:57;2.50;;;1.60;;
76814;SDS011;65768;49.906;19.384;2023-07-29T06:50:26;3.70;;;1.40;;
76814;SDS011;65768;49.906;19.384;2023-07-29T06:52:55;2.40;;;1.40;;
76814;SDS011;65768;49.906;19.384;2023-07-29T06:55:24;2.70;;;1.30;;
76814;SDS011;65768;49.906;19.384;2023-07-29T06:57:53;2.20;;;1.20;;
76814;SDS011;65768;49.906;19.384;2023-07-29T07:00:22;3.40;;;1.60;;
76814;SDS011;65768;49.906;19.384;2023-07-29T07:02:51;2.60;;;1.40;;
76814;SDS011;65768;49.906;19.384;2023-07-29T07:05:19;2.60;;;1.20;;
76814;SDS011;65768;49.906;19.384;2023-07-29T07:07:48;4.30;;;1.50;;
76814;SDS011;65768;49.906;19.384;2023-07-29T07:10:19;1.80;;;1.20;;
76814;SDS011;65768;49.906;19.384;2023-07-29T07:12:47;2.70;;;1.50;;
76814;SDS011;65768;49.906;19.384;2023-07-29T07:15:16;2.60;;;1.40;;
76814;SDS011;65768;49.906;19.384;2023-07-29T07:17:45;1.90;;;1.20;;
76814;SDS011;65768;49.906;19.384;2023-07-29T07:20:14;3.00;;;1.60;;
76814;SDS011;65768;49.906;19.384;2023-07-29T07:22:43;2.40;;;1.30;;
76814;SDS011;65768;49.906;19.384;2023-07-29T07:25:12;1.70;;;1.10;;
76814;SDS011;65768;49.906;19.384;2023-07-29T07:27:40;3.90;;;1.30;;
76814;SDS011;65768;49.906;19.384;2023-07-29T07:30:08;3.50;;;1.30;;
76814;SDS011;65768;49.906;19.384;2023-07-29T07:32:36;2.60;;;1.10;;
76814;SDS011;65768;49.906;19.384;2023-07-29T07:35:05;2.40;;;1.60;;
76814;SDS011;65768;49.906;19.384;2023-07-29T07:37:33;1.70;;;1.30;;
76814;SDS011;65768;49.906;19.384;2023-07-29T07:40:01;3.50;;;1.50;;
76814;SDS011;65768;49.906;19.384;2023-07-29T07:42:31;2.10;;;1.40;;
76814;SDS011;65768;49.906;19.384;2023-07-29T07:44:59;2.10;;;1.30;;
76814;SDS011;65768;49.906;19.384;2023-07-29T07:47:28;3.10;;;1.30;;
76814;SDS011;65768;49.906;19.384;2023-07-29T07:49:56;2.40;;;1.50;;
76814;SDS011;65768;49.906;19.384;2023-07-29T07:52:24;2.50;;;1.40;;
76814;SDS011;65768;49.906;19.384;2023-07-29T07:54:54;4.50;;;1.50;;
76814;SDS011;65768;49.906;19.384;2023-07-29T07:57:22;2.10;;;1.10;;
76814;SDS011;65768;49.906;19.384;2023-07-29T07:59:51;1.80;;;1.00;;
76814;SDS011;65768;49.906;19.384;2023-07-29T08:02:20;2.00;;;1.10;;
76814;SDS011;65768;49.906;19.384;2023-07-29T08:04:49;2.40;;;1.30;;
76814;SDS011;65768;49.906;19.384;2023-07-29T08:07:18;2.70;;;1.20;;
76814;SDS011;65768;49.906;19.384;2023-07-29T08:09:47;3.60;;;2.00;;
76814;SDS011;65768;49.906;19.384;2023-07-29T08:12:16;4.40;;;1.50;;
76814;SDS011;65768;49.906;19.384;2023-07-29T08:14:45;2.50;;;1.30;;
76814;SDS011;65768;49.906;19.384;2023-07-29T08:17:13;2.10;;;1.30;;
76814;SDS011;65768;49.906;19.384;2023-07-29T08:19:43;1.90;;;1.30;;
76814;SDS011;65768;49.906;19.384;2023-07-29T08:22:12;1.90;;;1.40;;
76814;SDS011;65768;49.906;19.384;2023-07-29T08:24:41;6.20;;;2.00;;
76814;SDS011;65768;49.906;19.384;2023-07-29T08:27:09;4.30;;;1.90;;
76814;SDS011;65768;49.906;19.384;2023-07-29T08:29:37;3.80;;;1.40;;
76814;SDS011;65768;49.906;19.384;2023-07-29T08:32:07;2.10;;;1.30;;
76814;SDS011;65768;49.906;19.384;2023-07-29T08:34:37;3.70;;;1.70;;
76814;SDS011;65768;49.906;19.384;2023-07-29T08:37:06;3.80;;;1.60;;
76814;SDS011;65768;49.906;19.384;2023-07-29T08:39:35;2.30;;;1.50;;
76814;SDS011;65768;49.906;19.384;2023-07-29T08:42:04;2.90;;;1.40;;
76814;SDS011;65768;49.906;19.384;2023-07-29T08:44:41;3.80;;;1.70;;
76814;SDS011;65768;49.906;19.384;2023-07-29T08:47:12;2.40;;;1.30;;
76814;SDS011;65768;49.906;19.384;2023-07-29T08:49:46;2.00;;;1.20;;
76814;SDS011;65768;49.906;19.384;2023-07-29T08:52:16;2.60;;;1.40;;
76814;SDS011;65768;49.906;19.384;2023-07-29T08:54:45;3.90;;;1.90;;
76814;SDS011;65768;49.906;19.384;2023-07-29T08:57:14;2.50;;;1.30;;
76814;SDS011;65768;49.906;19.384;2023-07-29T08:59:44;4.30;;;1.90;;
76814;SDS011;65768;49.906;19.384;2023-07-29T09:02:12;4.00;;;2.10;;
76814;SDS011;65768;49.906;19.384;2023-07-29T09:04:42;3.50;;;1.70;;
76814;SDS011;65768;49.906;19.384;2023-07-29T09:07:10;4.00;;;1.60;;
76814;SDS011;65768;49.906;19.384;2023-07-29T09:09:40;3.00;;;1.50;;
76814;SDS011;65768;49.906;19.384;2023-07-29T09:12:08;1.70;;;1.20;;
76814;SDS011;65768;49.906;19.384;2023-07-29T09:14:36;2.90;;;1.70;;
76814;SDS011;65768;49.906;19.384;2023-07-29T09:17:06;2.30;;;1.50;;
76814;SDS011;65768;49.906;19.384;2023-07-29T09:19:36;2.20;;;1.40;;
76814;SDS011;65768;49.906;19.384;2023-07-29T09:22:07;4.90;;;1.70;;
76814;SDS011;65768;49.906;19.384;2023-07-29T09:24:48;3.30;;;1.70;;
76814;SDS011;65768;49.906;19.384;2023-07-29T09:27:26;2.30;;;1.40;;
76814;SDS011;65768;49.906;19.384;2023-07-29T09:29:55;3.00;;;1.70;;
76814;SDS011;65768;49.906;19.384;2023-07-29T09:32:25;3.60;;;1.60;;
76814;SDS011;65768;49.906;19.384;2023-07-29T09:34:55;2.80;;;1.50;;
76814;SDS011;65768;49.906;19.384;2023-07-29T09:37:24;2.30;;;1.30;;
76814;SDS011;65768;49.906;19.384;2023-07-29T09:39:53;2.40;;;1.70;;
76814;SDS011;65768;49.906;19.384;2023-07-29T09:42:22;3.20;;;1.80;;
76814;SDS011;65768;49.906;19.384;2023-07-29T09:44:52;2.40;;;1.70;;
76814;SDS011;65768;49.906;19.384;2023-07-29T09:47:22;3.30;;;1.90;;
76814;SDS011;65768;49.906;19.384;2023-07-29T09:49:53;2.50;;;1.50;;
76814;SDS011;65768;49.906;19.384;2023-07-29T09:52:22;2.00;;;1.30;;
76814;SDS011;65768;49.906;19.384;2023-07-29T09:54:51;1.80;;;1.30;;
76814;SDS011;65768;49.906;19.384;2023-07-29T09:57:21;3.60;;;1.50;;
76814;SDS011;65768;49.906;19.384;2023-07-29T09:59:54;2.30;;;1.50;;
76814;SDS011;65768;49.906;19.384;2023-07-29T10:02:24;2.60;;;1.40;;
76814;SDS011;65768;49.906;19.384;2023-07-29T10:04:57;3.70;;;1.60;;
76814;SDS011;65768;49.906;19.384;2023-07-29T10:07:26;4.40;;;1.70;;
76814;SDS011;65768;49.906;19.384;2023-07-29T10:09:55;2.20;;;1.40;;
76814;SDS011;65768;49.906;19.384;2023-07-29T10:12:25;2.10;;;1.30;;
76814;SDS011;65768;49.906;19.384;2023-07-29T10:14:55;3.00;;;1.90;;
76814;SDS011;65768;49.906;19.384;2023-07-29T10:17:27;7.10;;;2.00;;
76814;SDS011;65768;49.906;19.384;2023-07-29T10:20:00;3.80;;;1.70;;
76814;SDS011;65768;49.906;19.384;2023-07-29T10:22:36;2.10;;;1.30;;
76814;SDS011;65768;49.906;19.384;2023-07-29T10:25:24;2.80;;;1.60;;
76814;SDS011;65768;49.906;19.384;2023-07-29T10:28:08;4.10;;;1.50;;
76814;SDS011;65768;49.906;19.384;2023-07-29T10:30:40;3.10;;;1.90;;
76814;SDS011;65768;49.906;19.384;2023-07-29T10:33:09;2.90;;;1.80;;
76814;SDS011;65768;49.906;19.384;2023-07-29T10:35:39;3.20;;;1.80;;
76814;SDS011;65768;49.906;19.384;2023-07-29T10:38:09;3.30;;;1.30;;
76814;SDS011;65768;49.906;19.384;2023-07-29T10:40:55;4.70;;;1.80;;
76814;SDS011;65768;49.906;19.384;2023-07-29T10:43:35;2.40;;;1.70;;
76814;SDS011;65768;49.906;19.384;2023-07-29T10:46:19;2.60;;;1.60;;
76814;SDS011;65768;49.906;19.384;2023-07-29T10:51:37;3.30;;;1.60;;
76814;SDS011;65768;49.906;19.384;2023-07-29T10:54:11;2.90;;;1.60;;
76814;SDS011;65768;49.906;19.384;2023-07-29T10:56:42;3.50;;;1.90;;
76814;SDS011;65768;49.906;19.384;2023-07-29T11:02:03;3.00;;;1.80;;
76814;SDS011;65768;49.906;19.384;2023-07-29T11:04:46;7.60;;;2.20;;
76814;SDS011;65768;49.906;19.384;2023-07-29T11:09:51;4.10;;;2.10;;
76814;SDS011;65768;49.906;19.384;2023-07-29T11:17:45;3.10;;;2.00;;
76814;SDS011;65768;49.906;19.384;2023-07-29T11:20:28;4.70;;;2.30;;
76814;SDS011;65768;49.906;19.384;2023-07-29T11:22:59;3.10;;;2.10;;
76814;SDS011;65768;49.906;19.384;2023-07-29T11:25:30;3.40;;;1.60;;
76814;SDS011;65768;49.906;19.384;2023-07-29T11:27:59;2.40;;;1.50;;
76814;SDS011;65768;49.906;19.384;2023-07-29T11:30:29;8.60;;;2.60;;
76814;SDS011;65768;49.906;19.384;2023-07-29T11:32:59;2.40;;;1.40;;
76814;SDS011;65768;49.906;19.384;2023-07-29T11:35:29;1.60;;;1.00;;
76814;SDS011;65768;49.906;19.384;2023-07-29T11:37:57;1.80;;;1.30;;
76814;SDS011;65768;49.906;19.384;2023-07-29T11:40:26;1.50;;;0.90;;
76814;SDS011;65768;49.906;19.384;2023-07-29T11:42:55;1.80;;;1.20;;
76814;SDS011;65768;49.906;19.384;2023-07-29T11:45:24;2.10;;;1.20;;
76814;SDS011;65768;49.906;19.384;2023-07-29T11:47:53;1.80;;;1.10;;
76814;SDS011;65768;49.906;19.384;2023-07-29T11:50:21;1.90;;;1.20;;
76814;SDS011;65768;49.906;19.384;2023-07-29T11:52:49;1.60;;;1.00;;
76814;SDS011;65768;49.906;19.384;2023-07-29T11:55:18;1.10;;;0.80;;
76814;SDS011;65768;49.906;19.384;2023-07-29T11:57:48;1.50;;;0.80;;
76814;SDS011;65768;49.906;19.384;2023-07-29T12:00:21;1.70;;;1.10;;
76814;SDS011;65768;49.906;19.384;2023-07-29T12:02:49;1.80;;;0.80;;
76814;SDS011;65768;49.906;19.384;2023-07-29T12:05:20;2.00;;;1.10;;
76814;SDS011;65768;49.906;19.384;2023-07-29T12:07:52;1.80;;;1.00;;
76814;SDS011;65768;49.906;19.384;2023-07-29T12:10:20;1.50;;;1.10;;
76814;SDS011;65768;49.906;19.384;2023-07-29T12:12:49;1.80;;;1.10;;
76814;SDS011;65768;49.906;19.384;2023-07-29T12:15:23;2.10;;;0.80;;
76814;SDS011;65768;49.906;19.384;2023-07-29T12:17:54;2.40;;;1.10;;
76814;SDS011;65768;49.906;19.384;2023-07-29T12:20:24;2.80;;;0.90;;
76814;SDS011;65768;49.906;19.384;2023-07-29T12:22:54;1.90;;;1.00;;
76814;SDS011;65768;49.906;19.384;2023-07-29T12:25:24;1.60;;;0.80;;
76814;SDS011;65768;49.906;19.384;2023-07-29T12:27:55;2.60;;;1.00;;
76814;SDS011;65768;49.906;19.384;2023-07-29T12:30:24;2.40;;;1.10;;
76814;SDS011;65768;49.906;19.384;2023-07-29T12:32:54;1.80;;;1.10;;
76814;SDS011;65768;49.906;19.384;2023-07-29T12:35:23;1.90;;;1.00;;
76814;SDS011;65768;49.906;19.384;2023-07-29T12:37:59;2.00;;;1.20;;
76814;SDS011;65768;49.906;19.384;2023-07-29T12:40:29;2.10;;;1.10;;
76814;SDS011;65768;49.906;19.384;2023-07-29T12:42:58;2.90;;;1.10;;
76814;SDS011;65768;49.906;19.384;2023-07-29T12:45:26;1.80;;;1.30;;
76814;SDS011;65768;49.906;19.384;2023-07-29T12:47:55;1.90;;;1.40;;
76814;SDS011;65768;49.906;19.384;2023-07-29T12:50:25;4.30;;;1.80;;
76814;SDS011;65768;49.906;19.384;2023-07-29T12:52:54;1.90;;;1.30;;
76814;SDS011;65768;49.906;19.384;2023-07-29T12:55:23;2.70;;;1.00;;
76814;SDS011;65768;49.906;19.384;2023-07-29T12:57:51;3.00;;;1.30;;
76814;SDS011;65768;49.906;19.384;2023-07-29T13:00:29;2.10;;;1.20;;
76814;SDS011;65768;49.906;19.384;2023-07-29T13:02:58;3.10;;;1.80;;
76814;SDS011;65768;49.906;19.384;2023-07-29T13:05:27;8.30;;;1.90;;
76814;SDS011;65768;49.906;19.384;2023-07-29T13:07:55;6.30;;;2.00;;
76814;SDS011;65768;49.906;19.384;2023-07-29T13:10:25;6.10;;;1.70;;
76814;SDS011;65768;49.906;19.384;2023-07-29T13:12:53;3.80;;;1.90;;
76814;SDS011;65768;49.906;19.384;2023-07-29T13:15:22;2.20;;;1.60;;
76814;SDS011;65768;49.906;19.384;2023-07-29T13:17:50;3.10;;;1.70;;
76814;SDS011;65768;49.906;19.384;2023-07-29T13:20:19;2.90;;;1.60;;
76814;SDS011;65768;49.906;19.384;2023-07-29T13:22:48;2.80;;;1.20;;
76814;SDS011;65768;49.906;19.384;2023-07-29T13:25:17;2.30;;;1.60;;
76814;SDS011;65768;49.906;19.384;2023-07-29T13:27:46;2.10;;;1.60;;
76814;SDS011;65768;49.906;19.384;2023-07-29T13:30:16;4.80;;;1.90;;
76814;SDS011;65768;49.906;19.384;2023-07-29T13:32:45;3.40;;;1.80;;
76814;SDS011;65768;49.906;19.384;2023-07-29T13:35:14;3.00;;;1.50;;
76814;SDS011;65768;49.906;19.384;2023-07-29T13:37:42;2.70;;;1.60;;
76814;SDS011;65768;49.906;19.384;2023-07-29T13:40:11;1.80;;;1.00;;
76814;SDS011;65768;49.906;19.384;2023-07-29T13:42:39;1.90;;;1.00;;
76814;SDS011;65768;49.906;19.384;2023-07-29T13:45:10;3.00;;;1.30;;
76814;SDS011;65768;49.906;19.384;2023-07-29T13:47:38;2.00;;;0.90;;
76814;SDS011;65768;49.906;19.384;2023-07-29T13:50:08;1.30;;;0.90;;
76814;SDS011;65768;49.906;19.384;2023-07-29T13:52:37;1.60;;;0.90;;
76814;SDS011;65768;49.906;19.384;2023-07-29T13:55:06;1.50;;;1.00;;
76814;SDS011;65768;49.906;19.384;2023-07-29T13:57:35;1.30;;;0.70;;
76814;SDS011;65768;49.906;19.384;2023-07-29T14:00:04;1.80;;;0.80;;
76814;SDS011;65768;49.906;19.384;2023-07-29T14:02:35;1.60;;;1.10;;
76814;SDS011;65768;49.906;19.384;2023-07-29T14:05:04;1.80;;;0.90;;
76814;SDS011;65768;49.906;19.384;2023-07-29T14:07:35;1.50;;;0.90;;
76814;SDS011;65768;49.906;19.384;2023-07-29T14:10:04;1.60;;;1.10;;
76814;SDS011;65768;49.906;19.384;2023-07-29T14:12:33;2.30;;;1.00;;
76814;SDS011;65768;49.906;19.384;2023-07-29T14:15:03;2.40;;;1.20;;
76814;SDS011;65768;49.906;19.384;2023-07-29T14:17:32;1.60;;;0.90;;
76814;SDS011;65768;49.906;19.384;2023-07-29T14:20:01;2.10;;;1.00;;
76814;SDS011;65768;49.906;19.384;2023-07-29T14:22:30;1.70;;;1.10;;
76814;SDS011;65768;49.906;19.384;2023-07-29T14:24:59;2.00;;;1.10;;
76814;SDS011;65768;49.906;19.384;2023-07-29T14:27:27;1.90;;;1.10;;
76814;SDS011;65768;49.906;19.384;2023-07-29T14:29:55;2.10;;;1.30;;
76814;SDS011;65768;49.906;19.384;2023-07-29T14:32:24;2.00;;;1.30;;
76814;SDS011;65768;49.906;19.384;2023-07-29T14:34:52;2.50;;;1.50;;
76814;SDS011;65768;49.906;19.384;2023-07-29T14:37:20;2.00;;;1.30;;
76814;SDS011;65768;49.906;19.384;2023-07-29T14:39:49;1.70;;;1.00;;
76814;SDS011;65768;49.906;19.384;2023-07-29T14:42:17;2.00;;;1.20;;
76814;SDS011;65768;49.906;19.384;2023-07-29T14:44:45;2.80;;;1.20;;
76814;SDS011;65768;49.906;19.384;2023-07-29T14:47:14;2.90;;;1.30;;
76814;SDS011;65768;49.906;19.384;2023-07-29T14:49:43;1.90;;;1.10;;
76814;SDS011;65768;49.906;19.384;2023-07-29T14:52:12;3.80;;;1.40;;
76814;SDS011;65768;49.906;19.384;2023-07-29T14:54:41;2.10;;;1.30;;
76814;SDS011;65768;49.906;19.384;2023-07-29T14:57:09;2.50;;;1.20;;
76814;SDS011;65768;49.906;19.384;2023-07-29T14:59:37;1.80;;;1.00;;
76814;SDS011;65768;49.906;19.384;2023-07-29T15:02:06;1.80;;;1.00;;
76814;SDS011;65768;49.906;19.384;2023-07-29T15:04:35;1.80;;;1.00;;
76814;SDS011;65768;49.906;19.384;2023-07-29T15:07:04;1.90;;;1.20;;
76814;SDS011;65768;49.906;19.384;2023-07-29T15:09:32;1.70;;;0.90;;
76814;SDS011;65768;49.906;19.384;2023-07-29T15:12:00;3.20;;;1.10;;